Time;durP1;ratioP1;P1;durP2;ratioP2;P2;SDS_P1;SDS_P2;PMS_P1;PMS_P2;Temp;Humidity;BMP_temperature;BMP_pressure;BME280_temperature;BME280_humidity;BME280_pressure;Samples;Min_cycle;Max_cycle;Signal;HPM_P1;HPM_P2
2024/01/04 00:00:13;;;;;;;2.53;1.50;;;8.40;99.90;;;;;;5050976;28;20426;-59
2024/01/04 00:02:39;;;;;;;1.70;1.00;;;8.50;99.90;;;;;;5043435;28;20446;-60
2024/01/04 00:05:07;;;;;;;4.10;1.50;;;8.50;99.90;;;;;;5028967;28;21030;-60
2024/01/04 00:07:33;;;;;;;3.10;1.30;;;8.50;99.90;;;;;;5021116;28;20802;-59
2024/01/04 00:10:00;;;;;;;4.30;1.67;;;8.50;99.90;;;;;;5030155;28;20451;-60
2024/01/04 00:12:26;;;;;;;2.10;1.60;;;8.50;99.90;;;;;;5030746;28;20462;-60
2024/01/04 00:14:54;;;;;;;3.23;1.53;;;8.60;99.90;;;;;;5026488;28;20489;-60
2024/01/04 00:17:21;;;;;;;2.90;1.40;;;8.50;99.90;;;;;;5030648;28;20848;-60
2024/01/04 00:19:48;;;;;;;2.53;1.27;;;8.50;99.90;;;;;;5031017;28;20493;-59
2024/01/04 00:22:14;;;;;;;2.23;1.33;;;8.50;99.90;;;;;;5030810;28;20485;-58
2024/01/04 00:24:41;;;;;;;2.50;1.20;;;8.50;99.90;;;;;;5027089;28;20944;-60
2024/01/04 00:27:07;;;;;;;1.60;1.10;;;8.50;99.90;;;;;;5030626;28;20874;-60
2024/01/04 00:29:34;;;;;;;4.10;1.23;;;8.50;99.90;;;;;;5024600;28;20517;-59
2024/01/04 00:32:02;;;;;;;2.60;1.20;;;8.50;99.90;;;;;;5027344;28;20516;-60
2024/01/04 00:34:28;;;;;;;2.00;1.00;;;8.50;99.90;;;;;;5028793;28;20466;-59
2024/01/04 00:36:56;;;;;;;2.20;0.83;;;8.50;99.90;;;;;;5026957;28;20887;-60
2024/01/04 00:39:24;;;;;;;2.00;0.93;;;8.50;99.90;;;;;;5025418;28;20489;-60
2024/01/04 00:41:51;;;;;;;3.13;0.90;;;8.50;99.90;;;;;;5025607;28;20489;-60
2024/01/04 00:44:17;;;;;;;3.47;0.90;;;8.40;99.90;;;;;;5026448;28;20807;-59
2024/01/04 00:46:44;;;;;;;4.40;1.13;;;8.40;99.90;;;;;;5022808;28;20463;-59
2024/01/04 00:49:12;;;;;;;1.70;1.10;;;8.40;99.90;;;;;;5023353;28;20443;-60
2024/01/04 00:51:39;;;;;;;4.67;1.40;;;8.30;99.90;;;;;;5031019;28;20483;-59
2024/01/04 00:54:06;;;;;;;2.20;0.83;;;8.30;99.90;;;;;;5031616;28;20459;-60
2024/01/04 00:56:33;;;;;;;2.70;1.43;;;8.30;99.90;;;;;;5031047;28;20467;-60
2024/01/04 00:59:00;;;;;;;2.77;1.20;;;8.30;99.90;;;;;;5031461;28;21056;-59
2024/01/04 01:01:26;;;;;;;1.70;1.00;;;8.40;99.90;;;;;;5021798;28;20485;-60
2024/01/04 01:03:53;;;;;;;1.63;1.50;;;8.30;99.90;;;;;;5023543;28;20524;-66
2024/01/04 01:06:21;;;;;;;3.30;1.60;;;8.30;99.90;;;;;;5028052;28;20770;-60
2024/01/04 01:08:47;;;;;;;6.07;1.57;;;8.30;99.90;;;;;;5025871;28;20486;-60
2024/01/04 01:11:14;;;;;;;2.70;0.80;;;8.30;99.90;;;;;;5045446;28;20478;-60
2024/01/04 01:13:40;;;;;;;4.17;1.10;;;8.20;99.90;;;;;;5057442;28;20443;-60
2024/01/04 01:16:08;;;;;;;1.93;1.70;;;8.30;99.90;;;;;;5051661;28;20443;-60
2024/01/04 01:18:35;;;;;;;3.63;1.40;;;8.20;99.90;;;;;;5044289;28;20563;-60
2024/01/04 01:21:02;;;;;;;3.70;1.53;;;8.30;99.90;;;;;;5042515;28;20478;-76
2024/01/04 01:23:30;;;;;;;1.60;1.50;;;8.30;99.90;;;;;;5030786;28;20557;-60
2024/01/04 01:25:57;;;;;;;2.00;1.10;;;8.20;99.90;;;;;;5027733;28;20466;-60
2024/01/04 01:28:23;;;;;;;2.00;1.20;;;8.20;99.90;;;;;;5030384;28;20461;-60
2024/01/04 01:30:51;;;;;;;1.47;1.10;;;8.30;99.90;;;;;;5031400;28;20696;-61
2024/01/04 01:33:17;;;;;;;1.40;1.27;;;8.30;99.90;;;;;;5034639;28;20447;-59
2024/01/04 01:35:44;;;;;;;1.47;1.20;;;8.30;99.90;;;;;;5031195;28;20462;-58
2024/01/04 01:38:10;;;;;;;3.00;1.13;;;8.30;99.90;;;;;;5030563;28;20903;-60
2024/01/04 01:40:38;;;;;;;1.60;0.87;;;8.30;99.90;;;;;;5032747;28;20540;-60
2024/01/04 01:43:05;;;;;;;2.00;0.90;;;8.30;99.90;;;;;;5027341;28;20463;-61
2024/01/04 01:45:31;;;;;;;1.97;1.10;;;8.40;99.90;;;;;;5032646;28;20493;-61
2024/01/04 01:47:58;;;;;;;3.47;1.30;;;8.40;99.90;;;;;;5032191;28;20439;-59
2024/01/04 01:50:26;;;;;;;2.60;1.47;;;8.40;99.90;;;;;;5021143;28;20517;-60
2024/01/04 01:52:53;;;;;;;2.10;1.10;;;8.40;99.90;;;;;;5032704;28;20466;-60
2024/01/04 01:55:21;;;;;;;6.47;1.50;;;8.40;99.90;;;;;;5027615;28;21289;-60
2024/01/04 01:57:49;;;;;;;3.03;1.43;;;8.30;99.90;;;;;;5027792;28;20466;-60
2024/01/04 02:00:16;;;;;;;1.40;1.30;;;8.40;99.90;;;;;;5029676;28;20447;-59
2024/01/04 02:02:46;;;;;;;2.77;1.17;;;8.40;99.90;;;;;;5033824;28;20525;-60
2024/01/04 02:05:12;;;;;;;1.93;1.17;;;8.40;99.90;;;;;;5034045;28;20450;-59
2024/01/04 02:07:39;;;;;;;2.00;0.90;;;8.30;99.90;;;;;;5034307;28;20443;-60
2024/01/04 02:10:07;;;;;;;1.73;1.27;;;8.30;99.90;;;;;;5032989;28;20508;-60
2024/01/04 02:12:33;;;;;;;0.90;0.80;;;8.30;99.90;;;;;;5033726;28;20439;-60
2024/01/04 02:15:01;;;;;;;5.27;1.20;;;8.20;99.90;;;;;;5023685;28;20524;-60
2024/01/04 02:17:28;;;;;;;1.50;1.20;;;8.30;99.90;;;;;;5027787;28;20451;-60
2024/01/04 02:19:57;;;;;;;1.77;1.03;;;8.20;99.90;;;;;;5031129;28;20483;-61
2024/01/04 02:22:23;;;;;;;2.10;1.00;;;8.20;99.90;;;;;;5032466;28;20521;-61
2024/01/04 02:24:51;;;;;;;1.17;0.70;;;8.20;99.90;;;;;;5031999;28;20439;-60
2024/01/04 02:27:18;;;;;;;2.60;0.90;;;8.30;99.90;;;;;;5027213;28;20473;-59
2024/01/04 02:29:45;;;;;;;4.63;1.33;;;8.30;99.90;;;;;;5027794;28;20505;-60
2024/01/04 02:32:11;;;;;;;0.87;0.80;;;8.20;99.90;;;;;;5024414;28;20537;-59
2024/01/04 02:34:38;;;;;;;0.93;0.90;;;8.10;99.90;;;;;;5028452;28;20442;-60
2024/01/04 02:37:05;;;;;;;1.73;1.10;;;8.10;1.40;;;;;;5028579;28;20528;-59
2024/01/04 02:39:31;;;;;;;0.90;0.90;;;8.00;99.90;;;;;;5025504;28;20529;-60
2024/01/04 02:41:59;;;;;;;1.97;0.83;;;8.00;99.90;;;;;;5032047;28;20462;-58
2024/01/04 02:44:26;;;;;;;2.50;0.90;;;8.00;99.90;;;;;;5030303;28;20447;-59
2024/01/04 02:46:52;;;;;;;1.33;0.90;;;7.90;99.90;;;;;;5028478;28;20878;-59
2024/01/04 02:49:19;;;;;;;2.60;1.00;;;7.80;99.90;;;;;;5033717;28;20928;-60
2024/01/04 02:51:46;;;;;;;1.90;1.00;;;7.80;89.60;;;;;;5027913;28;20483;-60
2024/01/04 02:54:13;;;;;;;2.10;1.10;;;7.70;78.70;;;;;;5028880;28;20455;-59
2024/01/04 02:56:39;;;;;;;2.87;1.17;;;7.70;73.10;;;;;;5029166;28;20454;-59
2024/01/04 02:59:07;;;;;;;1.80;1.20;;;7.70;61.80;;;;;;5030447;28;20479;-60
2024/01/04 03:01:34;;;;;;;2.50;0.90;;;7.70;53.60;;;;;;5030964;28;20855;-60
2024/01/04 03:04:01;;;;;;;2.03;1.00;;;7.60;45.30;;;;;;5028432;28;21031;-60
2024/01/04 03:06:29;;;;;;;1.10;1.00;;;7.60;35.20;;;;;;5032841;28;20505;-59
2024/01/04 03:08:57;;;;;;;1.87;1.17;;;7.60;27.60;;;;;;5031534;28;20439;-60
2024/01/04 03:11:23;;;;;;;1.43;1.17;;;7.60;25.20;;;;;;5027624;28;20548;-60
2024/01/04 03:13:50;;;;;;;3.20;1.00;;;7.50;21.50;;;;;;5029031;28;20478;-60
2024/01/04 03:16:19;;;;;;;3.13;1.37;;;7.50;95.10;;;;;;5032513;28;20445;-60
2024/01/04 03:18:46;;;;;;;2.40;1.00;;;7.50;99.90;;;;;;5032368;28;20532;-61
2024/01/04 03:21:13;;;;;;;2.10;1.20;;;7.40;99.90;;;;;;5030105;28;20536;-60
2024/01/04 03:23:39;;;;;;;3.60;1.40;;;7.40;99.90;;;;;;5031371;28;21644;-60
2024/01/04 03:26:06;;;;;;;2.40;1.30;;;7.50;99.90;;;;;;5031297;28;20862;-59
2024/01/04 03:28:33;;;;;;;1.30;0.90;;;7.50;99.90;;;;;;5026283;28;20556;-59
2024/01/04 03:30:59;;;;;;;2.23;1.00;;;7.50;99.90;;;;;;5031031;28;20474;-59
2024/01/04 03:33:27;;;;;;;1.30;1.20;;;7.50;99.90;;;;;;5032428;28;20501;-60
2024/01/04 03:35:54;;;;;;;0.80;0.80;;;7.50;83.90;;;;;;5032038;28;20937;-60
2024/01/04 03:38:20;;;;;;;0.80;0.80;;;7.50;74.90;;;;;;5032112;28;20478;-60
2024/01/04 03:40:47;;;;;;;1.20;0.90;;;7.50;21.50;;;;;;5028661;28;20903;-60
2024/01/04 03:43:13;;;;;;;4.53;1.37;;;7.50;22.20;;;;;;5030661;28;20483;-59
2024/01/04 03:45:40;;;;;;;2.50;1.00;;;7.60;22.30;;;;;;5030006;28;20439;-59
2024/01/04 03:48:07;;;;;;;1.57;1.10;;;7.50;22.70;;;;;;5029576;28;20442;-60
2024/01/04 03:50:35;;;;;;;4.63;1.20;;;7.60;21.40;;;;;;5032298;28;20490;-60
2024/01/04 03:53:02;;;;;;;2.63;0.80;;;7.50;22.40;;;;;;5032530;28;20491;-60
2024/01/04 03:55:28;;;;;;;1.43;0.90;;;7.50;21.00;;;;;;5027353;28;20486;-59
2024/01/04 03:57:56;;;;;;;1.93;0.90;;;7.60;21.70;;;;;;5030748;28;21124;-60
2024/01/04 04:00:22;;;;;;;2.17;1.00;;;7.50;21.90;;;;;;5030875;28;20483;-60
2024/01/04 04:02:51;;;;;;;5.23;0.90;;;7.50;72.00;;;;;;5024125;28;20941;-60
2024/01/04 04:05:17;;;;;;;2.00;0.80;;;7.50;72.10;;;;;;5027783;28;21066;-60
2024/01/04 04:07:45;;;;;;;4.10;1.13;;;7.50;75.70;;;;;;5030908;28;20514;-60
2024/01/04 04:10:12;;;;;;;1.03;0.73;;;7.50;82.10;;;;;;5028088;28;20536;-59
2024/01/04 04:12:38;;;;;;;0.97;0.87;;;7.60;86.70;;;;;;5027511;28;20521;-59
2024/01/04 04:15:06;;;;;;;1.00;0.80;;;7.60;88.10;;;;;;5028845;28;20462;-60
2024/01/04 04:17:32;;;;;;;0.80;0.80;;;7.50;84.10;;;;;;5028309;28;20904;-60
2024/01/04 04:19:59;;;;;;;1.67;0.80;;;7.50;79.90;;;;;;5030268;28;20548;-58
2024/01/04 04:22:25;;;;;;;11.33;1.23;;;7.50;73.80;;;;;;5029330;28;20600;-58
2024/01/04 04:24:53;;;;;;;3.83;1.10;;;7.60;21.10;;;;;;5030028;28;20459;-57
2024/01/04 04:27:20;;;;;;;1.17;0.80;;;7.60;23.30;;;;;;5024278;28;20458;-57
2024/01/04 04:29:46;;;;;;;1.83;0.90;;;7.60;27.20;;;;;;5026346;28;20455;-58
2024/01/04 04:32:13;;;;;;;1.97;0.70;;;7.60;30.80;;;;;;5029242;28;20851;-57
2024/01/04 04:34:40;;;;;;;1.80;1.00;;;7.60;35.70;;;;;;5029107;28;20459;-57
2024/01/04 04:37:06;;;;;;;2.00;1.03;;;7.60;37.70;;;;;;5028038;28;20435;-57
2024/01/04 04:39:33;;;;;;;1.10;0.90;;;7.60;39.50;;;;;;5025201;28;20475;-57
2024/01/04 04:42:01;;;;;;;1.67;1.33;;;7.60;38.80;;;;;;5034901;28;20474;-57
2024/01/04 04:44:27;;;;;;;2.00;0.90;;;7.60;42.90;;;;;;5035606;28;20859;-57
2024/01/04 04:46:54;;;;;;;2.60;1.00;;;7.70;44.80;;;;;;5034985;28;20557;-57
2024/01/04 04:49:21;;;;;;;2.00;0.90;;;7.70;46.30;;;;;;5033232;28;20449;-58
2024/01/04 04:51:49;;;;;;;3.87;1.20;;;7.70;46.00;;;;;;5035166;28;20482;-57
2024/01/04 04:54:16;;;;;;;1.17;0.90;;;7.60;47.40;;;;;;5032554;28;21022;-58
2024/01/04 04:56:43;;;;;;;1.57;0.97;;;7.60;49.80;;;;;;5031641;28;20976;-57
2024/01/04 04:59:12;;;;;;;1.47;1.00;;;7.70;50.50;;;;;;5025652;28;20482;-57
2024/01/04 05:01:39;;;;;;;1.00;0.90;;;7.60;47.80;;;;;;5029864;28;20508;-57
2024/01/04 05:04:06;;;;;;;5.23;1.03;;;7.60;50.70;;;;;;5031672;28;20504;-57
2024/01/04 05:06:33;;;;;;;1.80;0.90;;;7.70;55.40;;;;;;5035121;28;20447;-57
2024/01/04 05:08:59;;;;;;;1.50;1.07;;;7.70;53.20;;;;;;5029616;28;20462;-58
2024/01/04 05:11:26;;;;;;;1.63;1.10;;;7.60;52.50;;;;;;5039010;28;20511;-58
2024/01/04 05:13:52;;;;;;;0.90;0.80;;;7.60;44.80;;;;;;5040276;28;20447;-57
2024/01/04 05:16:20;;;;;;;1.03;0.80;;;7.60;42.10;;;;;;5035418;28;20500;-58
2024/01/04 05:18:47;;;;;;;1.60;0.97;;;7.60;37.40;;;;;;5042822;22;20564;-57
2024/01/04 05:21:13;;;;;;;0.70;0.70;;;7.60;34.40;;;;;;5024193;28;20584;-60
2024/01/04 05:23:40;;;;;;;1.70;1.00;;;7.60;34.30;;;;;;5026554;28;20459;-57
2024/01/04 05:26:07;;;;;;;1.63;1.37;;;7.60;37.60;;;;;;5026009;28;20898;-56
2024/01/04 05:28:33;;;;;;;1.87;0.93;;;7.60;39.70;;;;;;5026117;28;20483;-57
2024/01/04 05:31:00;;;;;;;2.70;1.00;;;7.60;48.50;;;;;;5026324;28;20455;-56
2024/01/04 05:33:28;;;;;;;2.33;0.80;;;7.60;50.90;;;;;;5021877;28;20455;-57
2024/01/04 05:35:55;;;;;;;2.70;1.10;;;7.60;49.00;;;;;;5031188;28;20464;-57
2024/01/04 05:38:22;;;;;;;1.93;1.27;;;7.60;42.70;;;;;;5031519;28;20458;-57
2024/01/04 05:40:49;;;;;;;3.70;1.40;;;7.50;41.80;;;;;;5023481;28;20510;-57
2024/01/04 05:43:15;;;;;;;1.43;0.97;;;7.50;41.20;;;;;;5031033;28;20450;-57
2024/01/04 05:45:42;;;;;;;1.03;0.93;;;7.50;36.00;;;;;;5031706;28;20435;-56
2024/01/04 05:48:08;;;;;;;0.90;0.70;;;7.40;31.70;;;;;;5030738;28;20513;-57
2024/01/04 05:50:36;;;;;;;1.03;0.93;;;7.40;30.80;;;;;;5032471;28;20446;-57
2024/01/04 05:53:03;;;;;;;2.97;0.93;;;7.40;27.10;;;;;;5028615;28;20469;-56
2024/01/04 05:55:30;;;;;;;1.83;1.03;;;7.40;33.50;;;;;;5030358;28;20862;-56
2024/01/04 05:57:56;;;;;;;1.20;0.90;;;7.40;33.50;;;;;;5017772;28;20479;-57
2024/01/04 06:00:23;;;;;;;1.07;0.90;;;7.40;33.10;;;;;;5027569;28;20530;-57
2024/01/04 06:02:49;;;;;;;1.47;0.80;;;7.40;36.30;;;;;;5031149;28;20475;-58
2024/01/04 06:05:16;;;;;;;1.77;1.00;;;7.40;41.00;;;;;;5029156;28;20532;-57
2024/01/04 06:07:44;;;;;;;2.83;1.20;;;7.40;39.30;;;;;;5032507;28;20466;-55
2024/01/04 06:10:10;;;;;;;1.70;1.00;;;7.30;31.20;;;;;;5031067;28;20439;-56
2024/01/04 06:12:37;;;;;;;1.20;0.90;;;7.30;27.70;;;;;;5033281;28;20446;-57
2024/01/04 06:15:04;;;;;;;3.27;1.07;;;7.30;23.70;;;;;;5031391;28;21002;-56
2024/01/04 06:17:31;;;;;;;1.13;0.97;;;7.20;99.90;;;;;;5027924;28;20486;-56
2024/01/04 06:19:57;;;;;;;1.33;0.97;;;7.20;99.90;;;;;;5032601;28;20478;-57
2024/01/04 06:22:24;;;;;;;1.07;0.73;;;7.20;99.90;;;;;;5025958;28;20481;-57
2024/01/04 06:24:52;;;;;;;1.30;0.60;;;7.10;99.90;;;;;;5032139;28;20504;-57
2024/01/04 06:27:18;;;;;;;1.23;0.83;;;7.10;99.90;;;;;;5027163;28;20498;-56
2024/01/04 06:29:45;;;;;;;0.80;0.80;;;7.00;99.90;;;;;;5028443;28;20955;-57
2024/01/04 06:32:12;;;;;;;0.80;0.80;;;7.00;99.90;;;;;;5031632;28;20451;-57
2024/01/04 06:34:38;;;;;;;1.17;1.17;;;7.00;99.90;;;;;;5032719;28;20466;-56
2024/01/04 06:37:05;;;;;;;1.07;1.07;;;6.90;99.90;;;;;;5028222;28;20497;-56
2024/01/04 06:39:31;;;;;;;2.70;0.90;;;6.80;99.90;;;;;;5026074;28;20565;-56
2024/01/04 06:42:04;;;;;;;1.10;0.90;;;6.80;99.90;;;;;;5032116;28;20447;-57
2024/01/04 06:44:31;;;;;;;8.13;0.90;;;6.60;99.90;;;;;;5032023;28;20541;-57
2024/01/04 06:46:57;;;;;;;1.00;1.00;;;6.60;99.90;;;;;;5035428;28;20505;-56
2024/01/04 06:49:24;;;;;;;1.10;1.00;;;6.50;99.90;;;;;;5031518;28;21029;-57
2024/01/04 06:51:50;;;;;;;0.80;0.80;;;6.40;99.90;;;;;;5032095;28;20990;-57
2024/01/04 06:54:17;;;;;;;0.93;0.93;;;6.30;92.60;;;;;;5027412;28;20774;-57
2024/01/04 06:56:43;;;;;;;0.83;0.67;;;6.20;86.00;;;;;;5030767;28;20549;-58
2024/01/04 06:59:11;;;;;;;1.17;0.73;;;6.20;22.20;;;;;;5038396;28;20900;-58
2024/01/04 07:01:38;;;;;;;1.10;0.90;;;6.00;55.10;;;;;;5039995;28;20856;-57
2024/01/04 07:04:05;;;;;;;2.20;1.17;;;6.00;63.20;;;;;;5031717;28;20446;-57
2024/01/04 07:06:31;;;;;;;0.87;0.87;;;5.90;57.60;;;;;;5028226;28;20451;-56
2024/01/04 07:08:58;;;;;;;0.80;0.80;;;5.90;68.80;;;;;;5026775;28;20502;-56
2024/01/04 07:11:24;;;;;;;0.60;0.60;;;5.70;97.20;;;;;;5030294;28;20427;-57
2024/01/04 07:13:51;;;;;;;0.63;0.63;;;5.70;99.90;;;;;;5031681;28;20439;-56
2024/01/04 07:16:19;;;;;;;0.70;0.70;;;5.70;99.90;;;;;;5031631;28;20878;-56
2024/01/04 07:18:45;;;;;;;0.70;0.63;;;5.60;90.20;;;;;;5031455;28;20846;-56
2024/01/04 07:21:14;;;;;;;1.37;0.80;;;5.60;99.90;;;;;;5031522;28;20527;-57
2024/01/04 07:23:40;;;;;;;0.60;0.60;;;5.60;99.90;;;;;;5027714;28;20447;-57
2024/01/04 07:26:07;;;;;;;2.00;0.87;;;5.50;99.60;;;;;;5025202;28;20458;-56
2024/01/04 07:28:34;;;;;;;1.00;0.90;;;5.50;99.90;;;;;;5029790;28;20976;-57
2024/01/04 07:31:00;;;;;;;1.47;0.60;;;5.50;99.90;;;;;;5030314;28;20988;-57
2024/01/04 07:33:28;;;;;;;0.60;0.47;;;5.40;99.90;;;;;;5031397;28;20998;-57
2024/01/04 07:35:55;;;;;;;0.83;0.83;;;5.40;99.90;;;;;;5031133;28;20998;-56
2024/01/04 07:38:21;;;;;;;1.17;0.70;;;5.40;99.90;;;;;;5031556;28;20960;-56
2024/01/04 07:40:48;;;;;;;0.70;0.70;;;5.40;99.90;;;;;;5031186;28;21028;-57
2024/01/04 07:43:14;;;;;;;1.00;0.73;;;5.30;99.90;;;;;;5020843;28;20474;-57
2024/01/04 07:45:41;;;;;;;1.10;1.00;;;5.40;99.90;;;;;;5031215;28;20474;-55
2024/01/04 07:48:11;;;;;;;0.60;0.50;;;5.40;99.90;;;;;;5029714;28;20495;-57
2024/01/04 07:50:39;;;;;;;0.70;0.70;;;5.40;99.90;;;;;;5031247;28;20542;-57
2024/01/04 07:53:05;;;;;;;1.13;0.90;;;5.40;99.90;;;;;;5030763;28;20850;-56
2024/01/04 07:55:32;;;;;;;0.97;0.87;;;5.40;99.90;;;;;;5031277;28;20801;-56
2024/01/04 07:57:59;;;;;;;0.70;0.70;;;5.40;99.90;;;;;;5027645;28;20510;-57
2024/01/04 08:00:26;;;;;;;0.67;0.67;;;5.40;99.90;;;;;;5026660;28;20556;-57
2024/01/04 08:02:52;;;;;;;1.27;1.00;;;5.40;99.90;;;;;;5031333;28;20443;-57
2024/01/04 08:05:19;;;;;;;4.97;1.60;;;5.40;99.90;;;;;;5030753;28;20447;-57
2024/01/04 08:07:47;;;;;;;1.70;1.07;;;5.30;99.90;;;;;;5025874;28;20567;-55
2024/01/04 08:10:13;;;;;;;0.80;0.70;;;5.30;99.90;;;;;;5029164;28;20459;-56
2024/01/04 08:12:41;;;;;;;1.90;1.27;;;5.30;99.90;;;;;;5029952;28;20936;-57
2024/01/04 08:15:09;;;;;;;1.10;0.97;;;5.30;99.90;;;;;;5031472;28;20443;-57
2024/01/04 08:17:36;;;;;;;4.90;2.03;;;5.20;99.90;;;;;;5028276;28;20859;-56
2024/01/04 08:20:03;;;;;;;1.10;0.80;;;5.20;99.90;;;;;;5034614;28;20489;-57
2024/01/04 08:22:29;;;;;;;2.20;1.10;;;5.20;99.90;;;;;;5035125;28;20439;-58
2024/01/04 08:24:57;;;;;;;1.20;0.90;;;5.10;99.90;;;;;;5035144;28;20998;-56
2024/01/04 08:27:24;;;;;;;1.33;0.80;;;5.10;99.90;;;;;;5030357;28;20470;-56
2024/01/04 08:29:50;;;;;;;1.00;0.70;;;5.00;99.90;;;;;;5028431;28;20540;-57
2024/01/04 08:32:17;;;;;;;4.30;0.90;;;4.90;99.90;;;;;;5029692;28;20463;-57
2024/01/04 08:34:44;;;;;;;1.20;0.93;;;4.80;99.90;;;;;;5033917;28;20451;-56
2024/01/04 08:37:13;;;;;;;0.77;0.60;;;4.70;99.90;;;;;;5033946;28;20999;-56
2024/01/04 08:39:40;;;;;;;2.57;1.00;;;4.50;99.90;;;;;;5035017;28;20442;-57
2024/01/04 08:42:08;;;;;;;0.70;0.70;;;4.40;99.90;;;;;;5034574;28;20486;-57
2024/01/04 08:44:34;;;;;;;2.37;0.80;;;4.30;99.90;;;;;;5030976;28;20509;-57
2024/01/04 08:47:01;;;;;;;1.13;0.80;;;4.30;99.90;;;;;;5034276;28;20450;-56
2024/01/04 08:49:28;;;;;;;0.60;0.60;;;4.30;99.90;;;;;;5026705;28;20561;-56
2024/01/04 08:51:55;;;;;;;0.60;0.60;;;4.30;96.90;;;;;;5030341;28;20461;-56
2024/01/04 08:54:22;;;;;;;0.73;0.70;;;4.20;90.70;;;;;;5033598;28;20999;-56
2024/01/04 08:56:48;;;;;;;0.70;0.70;;;4.10;91.50;;;;;;5030932;28;20502;-56
2024/01/04 08:59:16;;;;;;;2.53;0.70;;;4.10;92.80;;;;;;5029382;28;20482;-57
2024/01/04 09:01:43;;;;;;;0.70;0.70;;;4.10;97.40;;;;;;5024126;28;20514;-57
2024/01/04 09:04:09;;;;;;;0.70;0.70;;;4.00;99.90;;;;;;5034295;28;20860;-57
2024/01/04 09:06:36;;;;;;;1.10;0.77;;;3.90;99.90;;;;;;5015240;28;20462;-56
2024/01/04 09:09:05;;;;;;;1.83;0.70;;;3.90;99.90;;;;;;5030484;28;20489;-56
2024/01/04 09:11:33;;;;;;;1.77;0.70;;;3.90;99.90;;;;;;5030221;28;20454;-57
2024/01/04 09:14:00;;;;;;;1.10;0.87;;;3.90;99.90;;;;;;5030478;28;20451;-57
2024/01/04 09:16:28;;;;;;;2.97;1.00;;;3.90;99.90;;;;;;5033712;28;20486;-57
2024/01/04 09:18:55;;;;;;;1.50;1.00;;;3.90;97.30;;;;;;5031046;28;20502;-56
2024/01/04 09:21:21;;;;;;;1.17;0.97;;;3.80;99.90;;;;;;5032286;28;20517;-57
2024/01/04 09:23:48;;;;;;;0.90;0.90;;;3.80;99.90;;;;;;5017231;28;20486;-56
2024/01/04 09:26:15;;;;;;;1.33;0.90;;;3.90;99.90;;;;;;5025721;28;20470;-57
2024/01/04 09:28:41;;;;;;;0.87;0.70;;;3.90;99.90;;;;;;5024892;28;20506;-57
2024/01/04 09:31:08;;;;;;;1.00;0.70;;;3.90;99.90;;;;;;5030609;28;20512;-56
2024/01/04 09:33:36;;;;;;;0.73;0.73;;;4.00;90.90;;;;;;5024817;28;20456;-57
2024/01/04 09:36:03;;;;;;;1.03;0.80;;;3.90;89.20;;;;;;5027419;28;21018;-56
2024/01/04 09:38:32;;;;;;;0.80;0.70;;;3.90;99.90;;;;;;5021892;28;20561;-55
2024/01/04 09:41:04;;;;;;;0.80;0.80;;;3.90;99.90;;;;;;5024454;28;20479;-55
2024/01/04 09:43:32;;;;;;;0.70;0.70;;;3.90;99.90;;;;;;5029245;28;20495;-54
2024/01/04 09:46:01;;;;;;;0.70;0.70;;;3.90;99.90;;;;;;5022042;28;20462;-53
2024/01/04 09:48:32;;;;;;;1.00;0.90;;;3.90;99.90;;;;;;5027581;28;20475;-54
2024/01/04 09:51:00;;;;;;;0.97;0.97;;;3.90;99.90;;;;;;5025594;28;20517;-55
2024/01/04 09:53:27;;;;;;;0.80;0.80;;;3.90;99.90;;;;;;5030892;28;20481;-53
2024/01/04 09:55:54;;;;;;;1.30;1.20;;;3.90;99.90;;;;;;5025611;28;20463;-53
2024/01/04 09:58:21;;;;;;;0.80;0.80;;;3.90;99.90;;;;;;5015665;28;20518;-54
2024/01/04 10:00:48;;;;;;;1.27;0.70;;;3.80;99.90;;;;;;5026551;28;20542;-54
2024/01/04 10:03:15;;;;;;;1.57;1.00;;;3.80;99.90;;;;;;5025087;28;20489;-54
2024/01/04 10:05:43;;;;;;;0.80;0.67;;;3.80;99.90;;;;;;5025233;28;20497;-54
2024/01/04 10:08:23;;;;;;;0.63;0.60;;;3.80;99.90;;;;;;5029379;28;20483;-54
2024/01/04 10:10:52;;;;;;;1.53;0.60;;;3.80;99.90;;;;;;5025733;28;20543;-54
2024/01/04 10:13:19;;;;;;;1.23;0.70;;;3.80;99.90;;;;;;5028295;28;20532;-54
2024/01/04 10:15:47;;;;;;;1.00;0.90;;;3.90;99.90;;;;;;5026572;28;20829;-54
2024/01/04 10:18:14;;;;;;;0.77;0.70;;;3.90;99.90;;;;;;5026584;28;20569;-55
2024/01/04 10:20:41;;;;;;;0.80;0.70;;;3.90;99.90;;;;;;5028244;28;20482;-53
2024/01/04 10:23:11;;;;;;;0.87;0.80;;;3.90;99.90;;;;;;5027444;28;20466;-54
2024/01/04 10:25:39;;;;;;;0.60;0.60;;;3.80;99.90;;;;;;5025248;28;20692;-54
2024/01/04 10:28:06;;;;;;;1.00;0.90;;;3.80;99.90;;;;;;5026674;28;20478;-54
2024/01/04 10:30:33;;;;;;;0.83;0.80;;;3.70;99.90;;;;;;5025747;28;20541;-53
2024/01/04 10:32:59;;;;;;;1.10;0.83;;;3.80;99.90;;;;;;5022540;28;20516;-54
2024/01/04 10:35:27;;;;;;;1.80;0.90;;;3.70;99.90;;;;;;5024803;28;23432;-55
2024/01/04 10:37:59;;;;;;;0.80;0.80;;;3.70;99.90;;;;;;5026522;28;20482;-54
2024/01/04 10:40:26;;;;;;;0.77;0.73;;;3.70;99.90;;;;;;5024535;28;20462;-54
2024/01/04 10:42:54;;;;;;;0.77;0.77;;;3.60;99.90;;;;;;5022218;28;20459;-55
2024/01/04 10:45:29;;;;;;;0.70;0.67;;;3.70;99.90;;;;;;5028615;28;20459;-53
2024/01/04 10:47:56;;;;;;;0.60;0.57;;;3.60;99.90;;;;;;5021448;28;20964;-54
2024/01/04 10:50:24;;;;;;;0.83;0.70;;;3.60;99.90;;;;;;5028573;28;20447;-55
2024/01/04 10:52:53;;;;;;;0.70;0.70;;;3.60;99.90;;;;;;5028317;28;20462;-54
2024/01/04 10:55:21;;;;;;;1.57;1.10;;;3.50;99.90;;;;;;5025038;28;20454;-55
2024/01/04 10:57:50;;;;;;;1.67;0.80;;;3.50;99.90;;;;;;5024916;28;20486;-55
2024/01/04 11:00:19;;;;;;;1.37;1.00;;;3.50;99.90;;;;;;5026352;28;20471;-55
2024/01/04 11:02:46;;;;;;;0.83;0.83;;;3.60;99.90;;;;;;5019400;28;20588;-54
2024/01/04 11:05:13;;;;;;;1.10;1.00;;;3.60;99.90;;;;;;5029587;28;20498;-54
2024/01/04 11:07:40;;;;;;;1.37;1.27;;;3.60;99.90;;;;;;5027635;28;20485;-54
2024/01/04 11:10:09;;;;;;;0.80;0.80;;;3.50;99.90;;;;;;5026446;28;20462;-55
2024/01/04 11:12:36;;;;;;;0.70;0.70;;;3.40;99.90;;;;;;5021764;28;20539;-55
2024/01/04 11:17:59;;;;;;;1.10;1.00;;;3.40;99.90;;;;;;6037288;22;21588;-59
2024/01/04 11:20:40;;;;;;;1.87;1.37;;;3.40;99.90;;;;;;4979582;28;20540;-58
2024/01/04 11:23:24;;;;;;;0.90;0.90;;;3.40;99.90;;;;;;4985847;28;20461;-57
2024/01/04 11:26:15;;;;;;;1.20;1.10;;;3.40;99.90;;;;;;4986478;28;20460;-53
2024/01/04 11:28:43;;;;;;;1.33;1.00;;;3.40;99.90;;;;;;4986168;28;20491;-52
2024/01/04 11:31:11;;;;;;;1.27;1.17;;;3.40;99.90;;;;;;4987788;28;20469;-53
2024/01/04 11:33:40;;;;;;;1.90;0.90;;;3.40;99.90;;;;;;4989120;28;20495;-53
2024/01/04 11:36:07;;;;;;;1.10;1.00;;;3.40;99.90;;;;;;4984872;28;20460;-54
2024/01/04 11:38:34;;;;;;;1.10;1.10;;;3.30;99.90;;;;;;4989747;28;20895;-53
2024/01/04 11:41:01;;;;;;;1.50;1.40;;;3.30;99.90;;;;;;4988526;28;20622;-54
2024/01/04 11:43:35;;;;;;;1.23;1.20;;;3.20;99.90;;;;;;4992828;28;20515;-53
2024/01/04 11:46:02;;;;;;;1.07;1.07;;;3.20;99.90;;;;;;4993548;28;20451;-54
2024/01/04 11:48:29;;;;;;;1.60;1.07;;;3.20;99.90;;;;;;4992560;28;20993;-54
2024/01/04 11:50:59;;;;;;;0.83;0.83;;;3.10;99.90;;;;;;4992382;28;20475;-51
2024/01/04 11:53:28;;;;;;;0.87;0.87;;;3.10;99.90;;;;;;4992156;28;20462;-53
2024/01/04 11:56:04;;;;;;;0.77;0.77;;;3.10;99.90;;;;;;4985476;28;20503;-51
2024/01/04 11:58:31;;;;;;;0.70;0.70;;;3.00;99.90;;;;;;4986261;28;20484;-51
2024/01/04 12:00:58;;;;;;;0.80;0.80;;;3.10;99.90;;;;;;4981051;28;20495;-50
2024/01/04 12:03:29;;;;;;;1.00;0.90;;;3.10;99.90;;;;;;4992415;28;20543;-50
2024/01/04 12:06:00;;;;;;;1.40;1.10;;;3.10;99.90;;;;;;4986236;28;20824;-51
2024/01/04 12:08:28;;;;;;;0.90;0.90;;;3.20;99.90;;;;;;4989204;28;20566;-51
2024/01/04 12:10:57;;;;;;;0.70;0.70;;;3.20;99.90;;;;;;4983436;28;20464;-50
2024/01/04 12:13:24;;;;;;;1.17;0.80;;;3.20;99.90;;;;;;4990380;28;20516;-50
2024/01/04 12:15:52;;;;;;;0.77;0.77;;;3.20;99.90;;;;;;4985298;28;20466;-51
2024/01/04 12:18:20;;;;;;;0.80;0.80;;;3.20;99.90;;;;;;4980641;28;20485;-51
2024/01/04 12:20:47;;;;;;;1.37;0.80;;;3.20;99.90;;;;;;4986018;28;20933;-52
2024/01/04 12:23:15;;;;;;;0.90;0.90;;;3.10;99.90;;;;;;4988595;28;20468;-52
2024/01/04 12:25:42;;;;;;;3.23;0.97;;;3.10;99.90;;;;;;4988702;28;20868;-51
2024/01/04 12:28:09;;;;;;;1.20;1.20;;;3.10;99.90;;;;;;4986549;28;20997;-52
2024/01/04 12:30:38;;;;;;;1.23;1.13;;;3.00;95.90;;;;;;4988777;28;20461;-51
2024/01/04 12:33:06;;;;;;;0.90;0.90;;;2.90;95.20;;;;;;4987157;28;20433;-51
2024/01/04 12:35:32;;;;;;;1.93;1.10;;;2.90;90.60;;;;;;4981309;28;20793;-51
2024/01/04 12:38:00;;;;;;;0.80;0.80;;;3.00;85.30;;;;;;4991742;28;20460;-51
2024/01/04 12:40:27;;;;;;;0.80;0.80;;;3.00;84.40;;;;;;4990976;28;20453;-52
2024/01/04 12:42:55;;;;;;;0.90;0.80;;;2.90;80.20;;;;;;4989859;28;20480;-51
2024/01/04 12:45:22;;;;;;;0.90;0.90;;;2.90;81.90;;;;;;4996644;28;20449;-51
2024/01/04 12:47:49;;;;;;;1.10;0.90;;;2.90;76.30;;;;;;5000807;28;20519;-52
2024/01/04 12:50:19;;;;;;;1.77;0.90;;;2.90;66.60;;;;;;5000165;28;20496;-52
2024/01/04 12:52:46;;;;;;;0.80;0.80;;;2.90;65.70;;;;;;5002197;28;20445;-50
2024/01/04 12:55:13;;;;;;;0.80;0.80;;;2.80;69.00;;;;;;4988317;28;20838;-51
2024/01/04 12:57:40;;;;;;;1.00;1.00;;;2.90;58.70;;;;;;4990562;28;20456;-50
2024/01/04 13:00:08;;;;;;;1.20;1.10;;;2.90;55.40;;;;;;4989410;28;20643;-50